sensor_id;sensor_type;location;lat;lon;timestamp;temperature;humidity
44121;DHT22;29783;52.504;13.478;2024-01-15T00:01:29;2.40;88.40
44121;DHT22;29783;52.504;13.478;2024-01-15T00:03:54;2.40;88.30
44121;DHT22;29783;52.504;13.478;2024-01-15T00:06:20;2.40;88.30
44121;DHT22;29783;52.504;13.478;2024-01-15T00:08:46;2.40;88.20
44121;DHT22;29783;52.504;13.478;2024-01-15T00:11:12;2.40;88.20
44121;DHT22;29783;52.504;13.478;2024-01-15T00:13:37;2.30;88.90
44121;DHT22;29783;52.504;13.478;2024-01-15T00:16:04;2.30;89.20
44121;DHT22;29783;52.504;13.478;2024-01-15T00:18:29;2.20;89.40
44121;DHT22;29783;52.504;13.478;2024-01-15T00:20:55;2.20;89.50
44121;DHT22;29783;52.504;13.478;2024-01-15T00:23:21;2.20;89.80
44121;DHT22;29783;52.504;13.478;2024-01-15T00:25:46;2.20;89.50
44121;DHT22;29783;52.504;13.478;2024-01-15T00:28:12;2.20;89.80
44121;DHT22;29783;52.504;13.478;2024-01-15T00:30:37;2.20;89.70
44121;DHT22;29783;52.504;13.478;2024-01-15T00:33:03;2.20;89.40
44121;DHT22;29783;52.504;13.478;2024-01-15T00:35:29;2.20;89.10
44121;DHT22;29783;52.504;13.478;2024-01-15T00:37:54;2.20;88.80
44121;DHT22;29783;52.504;13.478;2024-01-15T00:40:20;2.30;88.70
44121;DHT22;29783;52.504;13.478;2024-01-15T00:42:45;2.30;87.90
44121;DHT22;29783;52.504;13.478;2024-01-15T00:45:11;2.30;87.90
44121;DHT22;29783;52.504;13.478;2024-01-15T00:47:37;2.30;87.40
44121;DHT22;29783;52.504;13.478;2024-01-15T00:50:02;2.30;87.50
44121;DHT22;29783;52.504;13.478;2024-01-15T00:52:28;2.30;87.70
44121;DHT22;29783;52.504;13.478;2024-01-15T00:54:54;2.40;87.60
44121;DHT22;29783;52.504;13.478;2024-01-15T00:57:19;2.30;87.60
44121;DHT22;29783;52.504;13.478;2024-01-15T00:59:45;2.30;88.00
44121;DHT22;29783;52.504;13.478;2024-01-15T01:02:11;2.30;88.40
44121;DHT22;29783;52.504;13.478;2024-01-15T01:04:36;2.30;88.00
44121;DHT22;29783;52.504;13.478;2024-01-15T01:07:02;2.30;87.90
44121;DHT22;29783;52.504;13.478;2024-01-15T01:09:28;2.20;88.70
44121;DHT22;29783;52.504;13.478;2024-01-15T01:11:56;2.20;88.90
44121;DHT22;29783;52.504;13.478;2024-01-15T01:14:22;2.10;89.20
44121;DHT22;29783;52.504;13.478;2024-01-15T01:16:47;2.10;89.90
44121;DHT22;29783;52.504;13.478;2024-01-15T01:19:13;2.00;90.00
44121;DHT22;29783;52.504;13.478;2024-01-15T01:21:39;1.90;90.50
44121;DHT22;29783;52.504;13.478;2024-01-15T01:24:04;1.90;91.00
44121;DHT22;29783;52.504;13.478;2024-01-15T01:26:30;1.80;91.30
44121;DHT22;29783;52.504;13.478;2024-01-15T01:28:56;1.70;91.90
44121;DHT22;29783;52.504;13.478;2024-01-15T01:31:23;1.70;91.80
44121;DHT22;29783;52.504;13.478;2024-01-15T01:33:48;1.70;92.00
44121;DHT22;29783;52.504;13.478;2024-01-15T01:36:14;1.80;91.90
44121;DHT22;29783;52.504;13.478;2024-01-15T01:38:40;1.80;91.80
44121;DHT22;29783;52.504;13.478;2024-01-15T01:41:06;1.70;91.90
44121;DHT22;29783;52.504;13.478;2024-01-15T01:43:33;1.70;92.20
44121;DHT22;29783;52.504;13.478;2024-01-15T01:46:00;1.70;92.20
44121;DHT22;29783;52.504;13.478;2024-01-15T01:48:26;1.70;92.10
44121;DHT22;29783;52.504;13.478;2024-01-15T01:51:00;1.70;92.10
44121;DHT22;29783;52.504;13.478;2024-01-15T01:53:27;1.60;92.10
44121;DHT22;29783;52.504;13.478;2024-01-15T01:55:54;1.40;92.60
44121;DHT22;29783;52.504;13.478;2024-01-15T01:58:21;1.30;93.30
44121;DHT22;29783;52.504;13.478;2024-01-15T02:00:47;1.40;93.70
44121;DHT22;29783;52.504;13.478;2024-01-15T02:03:13;1.40;93.80
44121;DHT22;29783;52.504;13.478;2024-01-15T02:05:40;1.40;93.80
44121;DHT22;29783;52.504;13.478;2024-01-15T02:08:06;1.50;93.90
44121;DHT22;29783;52.504;13.478;2024-01-15T02:10:31;1.50;93.70
44121;DHT22;29783;52.504;13.478;2024-01-15T02:12:57;1.50;93.60
44121;DHT22;29783;52.504;13.478;2024-01-15T02:15:23;1.40;93.40
44121;DHT22;29783;52.504;13.478;2024-01-15T02:18:03;1.50;93.20
44121;DHT22;29783;52.504;13.478;2024-01-15T02:20:29;1.50;92.80
44121;DHT22;29783;52.504;13.478;2024-01-15T02:23:14;1.50;92.80
44121;DHT22;29783;52.504;13.478;2024-01-15T02:25:45;1.40;92.80
44121;DHT22;29783;52.504;13.478;2024-01-15T02:28:12;1.40;92.50
44121;DHT22;29783;52.504;13.478;2024-01-15T02:30:39;1.40;92.40
44121;DHT22;29783;52.504;13.478;2024-01-15T02:33:05;1.40;91.90
44121;DHT22;29783;52.504;13.478;2024-01-15T02:35:31;1.50;91.70
44121;DHT22;29783;52.504;13.478;2024-01-15T02:37:57;1.50;91.20
44121;DHT22;29783;52.504;13.478;2024-01-15T02:40:22;1.60;91.10
44121;DHT22;29783;52.504;13.478;2024-01-15T02:42:48;1.60;90.50
44121;DHT22;29783;52.504;13.478;2024-01-15T02:45:14;1.60;90.60
44121;DHT22;29783;52.504;13.478;2024-01-15T02:47:39;1.60;90.60
44121;DHT22;29783;52.504;13.478;2024-01-15T02:50:05;1.60;90.50
44121;DHT22;29783;52.504;13.478;2024-01-15T02:52:31;1.60;90.30
44121;DHT22;29783;52.504;13.478;2024-01-15T02:54:56;1.50;90.10
44121;DHT22;29783;52.504;13.478;2024-01-15T02:57:22;1.60;89.90
44121;DHT22;29783;52.504;13.478;2024-01-15T02:59:48;1.50;89.50
44121;DHT22;29783;52.504;13.478;2024-01-15T03:02:13;1.60;89.50
44121;DHT22;29783;52.504;13.478;2024-01-15T03:04:43;1.70;89.70
44121;DHT22;29783;52.504;13.478;2024-01-15T03:07:09;1.70;89.70
44121;DHT22;29783;52.504;13.478;2024-01-15T03:09:35;1.80;89.40
44121;DHT22;29783;52.504;13.478;2024-01-15T03:12:00;1.70;88.70
44121;DHT22;29783;52.504;13.478;2024-01-15T03:14:26;1.80;89.40
44121;DHT22;29783;52.504;13.478;2024-01-15T03:16:52;1.70;89.50
44121;DHT22;29783;52.504;13.478;2024-01-15T03:19:18;1.80;88.90
44121;DHT22;29783;52.504;13.478;2024-01-15T03:21:44;1.80;88.70
44121;DHT22;29783;52.504;13.478;2024-01-15T03:24:09;1.80;88.80
44121;DHT22;29783;52.504;13.478;2024-01-15T03:26:35;1.80;88.20
44121;DHT22;29783;52.504;13.478;2024-01-15T03:29:00;1.90;87.70
44121;DHT22;29783;52.504;13.478;2024-01-15T03:31:26;1.90;87.60
44121;DHT22;29783;52.504;13.478;2024-01-15T03:33:51;1.90;87.60
44121;DHT22;29783;52.504;13.478;2024-01-15T03:36:17;1.90;88.00
44121;DHT22;29783;52.504;13.478;2024-01-15T03:38:43;1.90;87.90
44121;DHT22;29783;52.504;13.478;2024-01-15T03:41:08;1.80;88.00
44121;DHT22;29783;52.504;13.478;2024-01-15T03:43:34;1.90;88.20
44121;DHT22;29783;52.504;13.478;2024-01-15T03:46:00;1.80;87.40
44121;DHT22;29783;52.504;13.478;2024-01-15T03:48:25;1.90;87.30
44121;DHT22;29783;52.504;13.478;2024-01-15T03:50:51;1.90;87.60
44121;DHT22;29783;52.504;13.478;2024-01-15T03:53:16;1.80;87.60
44121;DHT22;29783;52.504;13.478;2024-01-15T03:55:42;1.90;87.30
44121;DHT22;29783;52.504;13.478;2024-01-15T03:58:08;1.90;87.30
44121;DHT22;29783;52.504;13.478;2024-01-15T04:00:34;1.90;87.20
44121;DHT22;29783;52.504;13.478;2024-01-15T04:02:59;1.90;87.00
44121;DHT22;29783;52.504;13.478;2024-01-15T04:05:25;1.90;86.70
44121;DHT22;29783;52.504;13.478;2024-01-15T04:07:51;2.00;86.60
44121;DHT22;29783;52.504;13.478;2024-01-15T04:10:17;1.90;86.50
44121;DHT22;29783;52.504;13.478;2024-01-15T04:12:42;2.00;86.60
44121;DHT22;29783;52.504;13.478;2024-01-15T04:15:08;1.90;87.10
44121;DHT22;29783;52.504;13.478;2024-01-15T04:17:34;1.80;87.30
44121;DHT22;29783;52.504;13.478;2024-01-15T04:19:59;1.90;87.10
44121;DHT22;29783;52.504;13.478;2024-01-15T04:22:26;1.90;87.10
44121;DHT22;29783;52.504;13.478;2024-01-15T04:24:52;1.90;87.20
44121;DHT22;29783;52.504;13.478;2024-01-15T04:27:17;2.00;86.60
44121;DHT22;29783;52.504;13.478;2024-01-15T04:29:43;2.00;86.40
44121;DHT22;29783;52.504;13.478;2024-01-15T04:32:10;2.00;86.40
44121;DHT22;29783;52.504;13.478;2024-01-15T04:34:35;2.00;86.30
44121;DHT22;29783;52.504;13.478;2024-01-15T04:37:01;2.10;85.60
44121;DHT22;29783;52.504;13.478;2024-01-15T04:39:27;2.00;85.80
44121;DHT22;29783;52.504;13.478;2024-01-15T04:41:52;2.10;85.40
44121;DHT22;29783;52.504;13.478;2024-01-15T04:44:18;2.10;85.50
44121;DHT22;29783;52.504;13.478;2024-01-15T04:46:44;2.20;85.00
44121;DHT22;29783;52.504;13.478;2024-01-15T04:49:10;2.20;85.00
44121;DHT22;29783;52.504;13.478;2024-01-15T04:51:36;2.20;85.10
44121;DHT22;29783;52.504;13.478;2024-01-15T04:54:02;2.20;84.90
44121;DHT22;29783;52.504;13.478;2024-01-15T04:56:27;2.20;85.00
44121;DHT22;29783;52.504;13.478;2024-01-15T04:58:53;2.10;84.60
44121;DHT22;29783;52.504;13.478;2024-01-15T05:01:18;2.10;84.80
44121;DHT22;29783;52.504;13.478;2024-01-15T05:03:44;2.20;84.50
44121;DHT22;29783;52.504;13.478;2024-01-15T05:06:10;2.20;84.40
44121;DHT22;29783;52.504;13.478;2024-01-15T05:08:35;2.20;84.50
44121;DHT22;29783;52.504;13.478;2024-01-15T05:11:01;2.20;84.10
44121;DHT22;29783;52.504;13.478;2024-01-15T05:13:26;2.20;84.40
44121;DHT22;29783;52.504;13.478;2024-01-15T05:15:52;2.20;84.60
44121;DHT22;29783;52.504;13.478;2024-01-15T05:18:18;2.20;83.70
44121;DHT22;29783;52.504;13.478;2024-01-15T05:20:44;2.30;84.00
44121;DHT22;29783;52.504;13.478;2024-01-15T05:23:09;2.30;84.10
44121;DHT22;29783;52.504;13.478;2024-01-15T05:25:35;2.30;84.60
44121;DHT22;29783;52.504;13.478;2024-01-15T05:28:01;2.20;85.00
44121;DHT22;29783;52.504;13.478;2024-01-15T05:30:26;2.30;85.10
44121;DHT22;29783;52.504;13.478;2024-01-15T05:32:52;2.30;85.10
44121;DHT22;29783;52.504;13.478;2024-01-15T05:35:18;2.20;85.10
44121;DHT22;29783;52.504;13.478;2024-01-15T05:37:44;2.20;85.00
44121;DHT22;29783;52.504;13.478;2024-01-15T05:40:12;2.30;84.80
44121;DHT22;29783;52.504;13.478;2024-01-15T05:42:38;2.20;84.70
44121;DHT22;29783;52.504;13.478;2024-01-15T05:45:05;2.20;85.10
44121;DHT22;29783;52.504;13.478;2024-01-15T05:47:31;2.30;84.40
44121;DHT22;29783;52.504;13.478;2024-01-15T05:49:57;2.30;84.30
44121;DHT22;29783;52.504;13.478;2024-01-15T05:52:23;2.30;84.10
44121;DHT22;29783;52.504;13.478;2024-01-15T05:54:50;2.30;83.80
44121;DHT22;29783;52.504;13.478;2024-01-15T05:57:17;2.30;84.20
44121;DHT22;29783;52.504;13.478;2024-01-15T05:59:46;2.40;84.10
44121;DHT22;29783;52.504;13.478;2024-01-15T06:02:12;2.30;85.20
44121;DHT22;29783;52.504;13.478;2024-01-15T06:04:37;2.30;86.20
44121;DHT22;29783;52.504;13.478;2024-01-15T06:07:03;2.10;87.50
44121;DHT22;29783;52.504;13.478;2024-01-15T06:09:28;2.00;88.00
44121;DHT22;29783;52.504;13.478;2024-01-15T06:11:55;1.90;88.40
44121;DHT22;29783;52.504;13.478;2024-01-15T06:14:20;1.90;88.40
44121;DHT22;29783;52.504;13.478;2024-01-15T06:16:47;2.00;87.80
44121;DHT22;29783;52.504;13.478;2024-01-15T06:19:14;2.00;87.30
44121;DHT22;29783;52.504;13.478;2024-01-15T06:21:40;2.00;87.50
44121;DHT22;29783;52.504;13.478;2024-01-15T06:24:05;2.10;87.40
44121;DHT22;29783;52.504;13.478;2024-01-15T06:26:31;2.00;87.00
44121;DHT22;29783;52.504;13.478;2024-01-15T06:28:57;2.10;87.20
44121;DHT22;29783;52.504;13.478;2024-01-15T06:31:22;2.10;87.00
44121;DHT22;29783;52.504;13.478;2024-01-15T06:33:48;2.10;86.00
44121;DHT22;29783;52.504;13.478;2024-01-15T06:36:14;2.20;85.70
44121;DHT22;29783;52.504;13.478;2024-01-15T06:38:43;2.30;85.50
44121;DHT22;29783;52.504;13.478;2024-01-15T06:41:08;2.30;85.90
44121;DHT22;29783;52.504;13.478;2024-01-15T06:43:34;2.30;86.30
44121;DHT22;29783;52.504;13.478;2024-01-15T06:45:59;2.20;86.70
44121;DHT22;29783;52.504;13.478;2024-01-15T06:48:25;2.20;86.50
44121;DHT22;29783;52.504;13.478;2024-01-15T06:50:51;2.20;86.80
44121;DHT22;29783;52.504;13.478;2024-01-15T06:53:16;2.30;86.70
44121;DHT22;29783;52.504;13.478;2024-01-15T06:55:42;2.30;86.50
44121;DHT22;29783;52.504;13.478;2024-01-15T06:58:07;2.20;86.70
44121;DHT22;29783;52.504;13.478;2024-01-15T07:00:33;2.30;86.00
44121;DHT22;29783;52.504;13.478;2024-01-15T07:02:59;2.30;85.60
44121;DHT22;29783;52.504;13.478;2024-01-15T07:05:24;2.30;86.00
44121;DHT22;29783;52.504;13.478;2024-01-15T07:07:50;2.30;85.80
44121;DHT22;29783;52.504;13.478;2024-01-15T07:10:16;2.30;85.80
44121;DHT22;29783;52.504;13.478;2024-01-15T07:12:42;2.30;85.60
44121;DHT22;29783;52.504;13.478;2024-01-15T07:15:08;2.30;84.80
44121;DHT22;29783;52.504;13.478;2024-01-15T07:17:34;2.40;84.10
44121;DHT22;29783;52.504;13.478;2024-01-15T07:20:00;2.40;84.00
44121;DHT22;29783;52.504;13.478;2024-01-15T07:22:26;2.50;83.70
44121;DHT22;29783;52.504;13.478;2024-01-15T07:24:51;2.50;83.60
44121;DHT22;29783;52.504;13.478;2024-01-15T07:27:17;2.50;83.20
44121;DHT22;29783;52.504;13.478;2024-01-15T07:29:42;2.60;83.20
44121;DHT22;29783;52.504;13.478;2024-01-15T07:32:08;2.60;83.10
44121;DHT22;29783;52.504;13.478;2024-01-15T07:34:34;2.70;82.90
44121;DHT22;29783;52.504;13.478;2024-01-15T07:36:59;2.60;82.80
44121;DHT22;29783;52.504;13.478;2024-01-15T07:39:25;2.60;81.80
44121;DHT22;29783;52.504;13.478;2024-01-15T07:41:52;2.70;81.90
44121;DHT22;29783;52.504;13.478;2024-01-15T07:44:17;2.70;82.00
44121;DHT22;29783;52.504;13.478;2024-01-15T07:46:47;2.70;81.70
44121;DHT22;29783;52.504;13.478;2024-01-15T07:49:13;2.70;81.20
44121;DHT22;29783;52.504;13.478;2024-01-15T07:51:38;2.80;81.30
44121;DHT22;29783;52.504;13.478;2024-01-15T07:54:06;2.80;81.30
44121;DHT22;29783;52.504;13.478;2024-01-15T07:56:32;2.80;81.40
44121;DHT22;29783;52.504;13.478;2024-01-15T07:58:59;2.80;81.00
44121;DHT22;29783;52.504;13.478;2024-01-15T08:01:25;2.80;81.10
44121;DHT22;29783;52.504;13.478;2024-01-15T08:03:50;2.80;81.90
44121;DHT22;29783;52.504;13.478;2024-01-15T08:06:17;2.80;81.80
44121;DHT22;29783;52.504;13.478;2024-01-15T08:08:43;2.80;81.80
44121;DHT22;29783;52.504;13.478;2024-01-15T08:11:08;2.80;81.40
44121;DHT22;29783;52.504;13.478;2024-01-15T08:13:34;2.80;80.90
44121;DHT22;29783;52.504;13.478;2024-01-15T08:16:00;2.80;80.50
44121;DHT22;29783;52.504;13.478;2024-01-15T08:18:25;2.90;80.40
44121;DHT22;29783;52.504;13.478;2024-01-15T08:20:51;2.90;80.40
44121;DHT22;29783;52.504;13.478;2024-01-15T08:23:17;2.90;80.60
44121;DHT22;29783;52.504;13.478;2024-01-15T08:25:43;2.90;80.90
44121;DHT22;29783;52.504;13.478;2024-01-15T08:28:08;2.90;80.50
44121;DHT22;29783;52.504;13.478;2024-01-15T08:30:34;2.90;81.10
44121;DHT22;29783;52.504;13.478;2024-01-15T08:33:00;2.90;80.70
44121;DHT22;29783;52.504;13.478;2024-01-15T08:35:25;2.90;81.10
44121;DHT22;29783;52.504;13.478;2024-01-15T08:37:54;2.90;80.60
44121;DHT22;29783;52.504;13.478;2024-01-15T08:40:20;2.90;80.60
44121;DHT22;29783;52.504;13.478;2024-01-15T08:42:46;2.90;80.50
44121;DHT22;29783;52.504;13.478;2024-01-15T08:45:12;2.90;81.00
44121;DHT22;29783;52.504;13.478;2024-01-15T08:47:38;2.90;80.80
44121;DHT22;29783;52.504;13.478;2024-01-15T08:50:04;2.90;80.60
44121;DHT22;29783;52.504;13.478;2024-01-15T08:52:30;2.80;81.10
44121;DHT22;29783;52.504;13.478;2024-01-15T08:54:56;2.80;81.20
44121;DHT22;29783;52.504;13.478;2024-01-15T08:57:22;3.00;80.80
44121;DHT22;29783;52.504;13.478;2024-01-15T08:59:48;3.00;80.30
44121;DHT22;29783;52.504;13.478;2024-01-15T09:02:14;3.00;80.40
44121;DHT22;29783;52.504;13.478;2024-01-15T09:04:40;2.90;80.60
44121;DHT22;29783;52.504;13.478;2024-01-15T09:07:06;2.90;80.70
44121;DHT22;29783;52.504;13.478;2024-01-15T09:09:32;2.90;80.40
44121;DHT22;29783;52.504;13.478;2024-01-15T09:11:57;2.90;81.00
44121;DHT22;29783;52.504;13.478;2024-01-15T09:14:23;3.00;80.70
44121;DHT22;29783;52.504;13.478;2024-01-15T09:16:49;3.00;80.70
44121;DHT22;29783;52.504;13.478;2024-01-15T09:19:15;3.00;80.40
44121;DHT22;29783;52.504;13.478;2024-01-15T09:21:42;3.00;80.80
44121;DHT22;29783;52.504;13.478;2024-01-15T09:24:07;3.00;80.90
44121;DHT22;29783;52.504;13.478;2024-01-15T09:26:33;3.00;80.90
44121;DHT22;29783;52.504;13.478;2024-01-15T09:28:58;2.90;81.40
44121;DHT22;29783;52.504;13.478;2024-01-15T09:31:24;3.00;81.00
44121;DHT22;29783;52.504;13.478;2024-01-15T09:33:50;3.10;80.40
44121;DHT22;29783;52.504;13.478;2024-01-15T09:36:22;3.00;80.80
44121;DHT22;29783;52.504;13.478;2024-01-15T09:38:48;3.10;80.80
44121;DHT22;29783;52.504;13.478;2024-01-15T09:41:14;3.10;80.70
44121;DHT22;29783;52.504;13.478;2024-01-15T09:43:40;3.10;80.80
44121;DHT22;29783;52.504;13.478;2024-01-15T09:46:06;3.00;80.80
44121;DHT22;29783;52.504;13.478;2024-01-15T09:48:31;3.00;80.70
44121;DHT22;29783;52.504;13.478;2024-01-15T09:51:01;3.10;80.00
44121;DHT22;29783;52.504;13.478;2024-01-15T09:53:27;3.20;80.00
44121;DHT22;29783;52.504;13.478;2024-01-15T09:55:53;3.30;79.40
44121;DHT22;29783;52.504;13.478;2024-01-15T09:58:19;3.30;79.50
44121;DHT22;29783;52.504;13.478;2024-01-15T10:00:45;3.30;79.80
44121;DHT22;29783;52.504;13.478;2024-01-15T10:03:13;3.30;79.80
44121;DHT22;29783;52.504;13.478;2024-01-15T10:05:39;3.30;79.90
44121;DHT22;29783;52.504;13.478;2024-01-15T10:08:05;3.30;80.10
44121;DHT22;29783;52.504;13.478;2024-01-15T10:10:32;3.30;79.90
44121;DHT22;29783;52.504;13.478;2024-01-15T10:12:58;3.30;79.90
44121;DHT22;29783;52.504;13.478;2024-01-15T10:15:27;3.30;80.20
44121;DHT22;29783;52.504;13.478;2024-01-15T10:17:53;3.30;79.80
44121;DHT22;29783;52.504;13.478;2024-01-15T10:20:20;3.30;79.60
44121;DHT22;29783;52.504;13.478;2024-01-15T10:22:48;3.40;79.50
44121;DHT22;29783;52.504;13.478;2024-01-15T10:25:14;3.40;80.00
44121;DHT22;29783;52.504;13.478;2024-01-15T10:27:43;3.30;79.90
44121;DHT22;29783;52.504;13.478;2024-01-15T10:30:10;3.40;79.60
44121;DHT22;29783;52.504;13.478;2024-01-15T10:32:35;3.50;78.90
44121;DHT22;29783;52.504;13.478;2024-01-15T10:35:01;3.50;78.80
44121;DHT22;29783;52.504;13.478;2024-01-15T10:37:28;3.50;78.30
44121;DHT22;29783;52.504;13.478;2024-01-15T10:39:53;3.60;78.50
44121;DHT22;29783;52.504;13.478;2024-01-15T10:42:19;3.50;78.90
44121;DHT22;29783;52.504;13.478;2024-01-15T10:44:45;3.40;79.00
44121;DHT22;29783;52.504;13.478;2024-01-15T10:47:13;3.40;79.20
44121;DHT22;29783;52.504;13.478;2024-01-15T10:49:40;3.50;78.90
44121;DHT22;29783;52.504;13.478;2024-01-15T10:52:06;3.50;79.10
44121;DHT22;29783;52.504;13.478;2024-01-15T10:54:32;3.50;79.20
44121;DHT22;29783;52.504;13.478;2024-01-15T10:56:59;3.60;78.90
44121;DHT22;29783;52.504;13.478;2024-01-15T10:59:24;3.50;78.50
44121;DHT22;29783;52.504;13.478;2024-01-15T11:01:51;3.50;78.90
44121;DHT22;29783;52.504;13.478;2024-01-15T11:04:21;3.50;78.80
44121;DHT22;29783;52.504;13.478;2024-01-15T11:06:52;3.50;78.60
44121;DHT22;29783;52.504;13.478;2024-01-15T11:09:19;3.70;78.10
44121;DHT22;29783;52.504;13.478;2024-01-15T11:11:46;3.80;77.50
44121;DHT22;29783;52.504;13.478;2024-01-15T11:14:34;3.80;77.00
44121;DHT22;29783;52.504;13.478;2024-01-15T11:17:00;3.80;76.60
44121;DHT22;29783;52.504;13.478;2024-01-15T11:19:27;3.80;77.00
44121;DHT22;29783;52.504;13.478;2024-01-15T11:22:00;3.80;77.30
44121;DHT22;29783;52.504;13.478;2024-01-15T11:24:44;3.70;77.60
44121;DHT22;29783;52.504;13.478;2024-01-15T11:27:09;3.60;78.20
44121;DHT22;29783;52.504;13.478;2024-01-15T11:29:36;3.50;78.40
44121;DHT22;29783;52.504;13.478;2024-01-15T11:32:06;3.60;78.40
44121;DHT22;29783;52.504;13.478;2024-01-15T11:34:59;3.50;79.00
44121;DHT22;29783;52.504;13.478;2024-01-15T11:37:28;3.40;79.40
44121;DHT22;29783;52.504;13.478;2024-01-15T11:40:03;3.40;79.80
44121;DHT22;29783;52.504;13.478;2024-01-15T11:42:29;3.40;79.70
44121;DHT22;29783;52.504;13.478;2024-01-15T11:44:55;3.40;80.00
44121;DHT22;29783;52.504;13.478;2024-01-15T11:50:07;3.40;80.60
44121;DHT22;29783;52.504;13.478;2024-01-15T11:52:38;3.40;80.80
44121;DHT22;29783;52.504;13.478;2024-01-15T11:55:24;3.40;81.40
44121;DHT22;29783;52.504;13.478;2024-01-15T11:57:53;3.30;81.90
44121;DHT22;29783;52.504;13.478;2024-01-15T12:00:22;3.20;83.70
44121;DHT22;29783;52.504;13.478;2024-01-15T12:02:49;2.80;85.80
44121;DHT22;29783;52.504;13.478;2024-01-15T12:05:17;2.40;87.70
44121;DHT22;29783;52.504;13.478;2024-01-15T12:07:44;2.20;89.10
44121;DHT22;29783;52.504;13.478;2024-01-15T12:10:15;2.10;89.30
44121;DHT22;29783;52.504;13.478;2024-01-15T12:12:59;2.10;89.50
44121;DHT22;29783;52.504;13.478;2024-01-15T12:15:28;2.10;89.30
44121;DHT22;29783;52.504;13.478;2024-01-15T12:17:59;2.30;89.10
44121;DHT22;29783;52.504;13.478;2024-01-15T12:20:25;2.30;88.90
44121;DHT22;29783;52.504;13.478;2024-01-15T12:22:51;2.30;88.50
44121;DHT22;29783;52.504;13.478;2024-01-15T12:25:17;2.30;88.40
44121;DHT22;29783;52.504;13.478;2024-01-15T12:27:43;2.30;88.30
44121;DHT22;29783;52.504;13.478;2024-01-15T12:30:13;2.30;88.30
44121;DHT22;29783;52.504;13.478;2024-01-15T12:32:43;2.40;88.10
44121;DHT22;29783;52.504;13.478;2024-01-15T12:35:13;2.40;87.80
44121;DHT22;29783;52.504;13.478;2024-01-15T12:37:42;2.40;87.60
44121;DHT22;29783;52.504;13.478;2024-01-15T12:40:09;2.40;87.70
44121;DHT22;29783;52.504;13.478;2024-01-15T12:42:36;2.50;87.20
44121;DHT22;29783;52.504;13.478;2024-01-15T12:45:03;2.50;87.10
44121;DHT22;29783;52.504;13.478;2024-01-15T12:47:30;2.40;87.40
44121;DHT22;29783;52.504;13.478;2024-01-15T12:49:57;2.30;88.00
44121;DHT22;29783;52.504;13.478;2024-01-15T12:52:27;2.30;88.50
44121;DHT22;29783;52.504;13.478;2024-01-15T12:54:53;2.10;89.50
44121;DHT22;29783;52.504;13.478;2024-01-15T12:57:18;2.10;90.00
44121;DHT22;29783;52.504;13.478;2024-01-15T12:59:44;2.10;90.30
44121;DHT22;29783;52.504;13.478;2024-01-15T13:02:14;2.00;90.40
44121;DHT22;29783;52.504;13.478;2024-01-15T13:04:40;2.00;90.30
44121;DHT22;29783;52.504;13.478;2024-01-15T13:07:06;2.10;90.00
44121;DHT22;29783;52.504;13.478;2024-01-15T13:09:33;2.10;90.00
44121;DHT22;29783;52.504;13.478;2024-01-15T13:11:59;2.20;89.90
44121;DHT22;29783;52.504;13.478;2024-01-15T13:14:24;2.30;89.10
44121;DHT22;29783;52.504;13.478;2024-01-15T13:16:51;2.20;89.10
44121;DHT22;29783;52.504;13.478;2024-01-15T13:19:19;2.30;89.10
44121;DHT22;29783;52.504;13.478;2024-01-15T13:21:49;2.30;89.20
44121;DHT22;29783;52.504;13.478;2024-01-15T13:24:19;2.30;88.70
44121;DHT22;29783;52.504;13.478;2024-01-15T13:26:44;2.20;89.20
44121;DHT22;29783;52.504;13.478;2024-01-15T13:29:11;2.30;89.10
44121;DHT22;29783;52.504;13.478;2024-01-15T13:31:39;2.30;88.80
44121;DHT22;29783;52.504;13.478;2024-01-15T13:34:04;2.30;88.50
44121;DHT22;29783;52.504;13.478;2024-01-15T13:36:30;2.30;87.80
44121;DHT22;29783;52.504;13.478;2024-01-15T13:38:56;2.30;87.40
44121;DHT22;29783;52.504;13.478;2024-01-15T13:41:25;2.30;87.50
44121;DHT22;29783;52.504;13.478;2024-01-15T13:43:56;2.30;88.20
44121;DHT22;29783;52.504;13.478;2024-01-15T13:46:25;2.40;87.80
44121;DHT22;29783;52.504;13.478;2024-01-15T13:48:54;2.30;88.10
44121;DHT22;29783;52.504;13.478;2024-01-15T13:51:22;2.30;88.50
44121;DHT22;29783;52.504;13.478;2024-01-15T13:53:50;2.30;88.80
44121;DHT22;29783;52.504;13.478;2024-01-15T13:56:17;2.20;89.60
44121;DHT22;29783;52.504;13.478;2024-01-15T13:58:43;2.20;90.10
44121;DHT22;29783;52.504;13.478;2024-01-15T14:01:09;2.20;89.80
44121;DHT22;29783;52.504;13.478;2024-01-15T14:03:37;2.20;88.90
44121;DHT22;29783;52.504;13.478;2024-01-15T14:06:02;2.30;88.40
44121;DHT22;29783;52.504;13.478;2024-01-15T14:08:29;2.30;88.10
44121;DHT22;29783;52.504;13.478;2024-01-15T14:10:55;2.30;88.50
44121;DHT22;29783;52.504;13.478;2024-01-15T14:13:22;2.30;88.40
44121;DHT22;29783;52.504;13.478;2024-01-15T14:15:48;2.30;87.60
44121;DHT22;29783;52.504;13.478;2024-01-15T14:18:16;2.30;87.50
44121;DHT22;29783;52.504;13.478;2024-01-15T14:20:41;2.40;87.10
44121;DHT22;29783;52.504;13.478;2024-01-15T14:23:09;2.40;86.40
44121;DHT22;29783;52.504;13.478;2024-01-15T14:25:36;2.40;85.70
44121;DHT22;29783;52.504;13.478;2024-01-15T14:28:03;2.40;85.90
44121;DHT22;29783;52.504;13.478;2024-01-15T14:30:33;2.40;86.70
44121;DHT22;29783;52.504;13.478;2024-01-15T14:33:02;2.40;86.20
44121;DHT22;29783;52.504;13.478;2024-01-15T14:35:28;2.40;86.00
44121;DHT22;29783;52.504;13.478;2024-01-15T14:37:53;2.30;85.80
44121;DHT22;29783;52.504;13.478;2024-01-15T14:40:19;2.40;86.30
44121;DHT22;29783;52.504;13.478;2024-01-15T14:42:45;2.40;86.00
44121;DHT22;29783;52.504;13.478;2024-01-15T14:45:10;2.40;85.70
44121;DHT22;29783;52.504;13.478;2024-01-15T14:47:39;2.40;85.90
44121;DHT22;29783;52.504;13.478;2024-01-15T14:50:08;2.40;85.80
44121;DHT22;29783;52.504;13.478;2024-01-15T14:52:34;2.40;86.10
44121;DHT22;29783;52.504;13.478;2024-01-15T14:55:00;2.40;86.00
44121;DHT22;29783;52.504;13.478;2024-01-15T14:57:25;2.40;85.70
44121;DHT22;29783;52.504;13.478;2024-01-15T14:59:51;2.40;85.40
44121;DHT22;29783;52.504;13.478;2024-01-15T15:02:17;2.30;85.50
44121;DHT22;29783;52.504;13.478;2024-01-15T15:04:43;2.30;85.20
44121;DHT22;29783;52.504;13.478;2024-01-15T15:07:08;2.30;85.80
44121;DHT22;29783;52.504;13.478;2024-01-15T15:09:35;2.30;86.00
44121;DHT22;29783;52.504;13.478;2024-01-15T15:12:03;2.30;85.70
44121;DHT22;29783;52.504;13.478;2024-01-15T15:14:30;2.30;85.30
44121;DHT22;29783;52.504;13.478;2024-01-15T15:16:57;2.20;85.00
44121;DHT22;29783;52.504;13.478;2024-01-15T15:19:23;2.30;85.00
44121;DHT22;29783;52.504;13.478;2024-01-15T15:21:48;2.20;85.10
44121;DHT22;29783;52.504;13.478;2024-01-15T15:24:14;2.30;85.40
44121;DHT22;29783;52.504;13.478;2024-01-15T15:26:39;2.20;85.10
44121;DHT22;29783;52.504;13.478;2024-01-15T15:29:05;2.10;85.30